Time;durP1;ratioP1;P1;durP2;ratioP2;P2;SDS_P1;SDS_P2;PMS_P1;PMS_P2;Temp;Humidity;BMP_temperature;BMP_pressure;BME280_temperature;BME280_humidity;BME280_pressure;Samples;Min_cycle;Max_cycle;Signal;HPM_P1;HPM_P2
2021/01/10 00:00:19;;;;;;;11.60;10.57;;;;;;;-0.09;85.25;101325.81;5042672;28;20221;-79
2021/01/10 00:02:45;;;;;;;11.20;10.10;;;;;;;-0.08;85.11;101324.09;5044383;28;20205;-78
2021/01/10 00:05:13;;;;;;;11.23;10.13;;;;;;;-0.03;85.22;101314.91;5043793;28;20216;-77
2021/01/10 00:07:39;;;;;;;11.03;9.97;;;;;;;-0.05;84.85;101319.97;5050284;28;20262;-77
2021/01/10 00:10:07;;;;;;;10.93;9.97;;;;;;;0.00;85.25;101317.59;5051254;28;20237;-77
2021/01/10 00:12:33;;;;;;;11.97;10.87;;;;;;;-0.04;85.12;101321.75;5051754;28;20771;-78
2021/01/10 00:14:59;;;;;;;12.10;11.10;;;;;;;-0.04;85.22;101318.28;5052874;28;20298;-77
2021/01/10 00:17:25;;;;;;;11.73;10.73;;;;;;;-0.04;84.80;101318.28;5055709;28;20781;-78
2021/01/10 00:19:51;;;;;;;12.77;11.60;;;;;;;-0.03;84.91;101314.91;5051892;28;20615;-77
2021/01/10 00:22:18;;;;;;;11.50;10.53;;;;;;;0.02;85.00;101308.28;5053181;28;20209;-77
2021/01/10 00:24:45;;;;;;;13.10;12.00;;;;;;;0.06;84.45;101309.22;5052322;28;20274;-77
2021/01/10 00:27:13;;;;;;;12.23;11.13;;;;;;;0.03;84.80;101312.56;5045551;28;20212;-77
2021/01/10 00:29:43;;;;;;;12.50;11.40;;;;;;;0.06;84.86;101315.25;5058748;28;20239;-77
2021/01/10 00:32:09;;;;;;;13.70;12.40;;;;;;;0.04;85.33;101313.44;5061202;28;20224;-78
2021/01/10 00:34:34;;;;;;;11.97;10.93;;;;;;;0.07;85.33;101324.69;5070763;28;20215;-78
2021/01/10 00:37:00;;;;;;;12.37;11.13;;;;;;;0.09;85.30;101311.94;5063770;28;20734;-76
2021/01/10 00:39:26;;;;;;;13.70;12.40;;;;;;;0.08;84.90;101317.88;5072335;28;20234;-77
2021/01/10 00:41:53;;;;;;;13.33;12.13;;;;;;;0.12;85.54;101319.72;5055110;28;20213;-77
2021/01/10 00:44:19;;;;;;;12.70;11.60;;;;;;;0.11;85.15;101318.00;5033884;28;20241;-77
2021/01/10 00:46:45;;;;;;;14.30;12.90;;;;;;;0.14;84.87;101316.44;5061584;28;20232;-77
2021/01/10 00:49:10;;;;;;;14.17;12.87;;;;;;;0.08;84.60;101313.63;5073953;28;20199;-77
2021/01/10 00:51:36;;;;;;;13.03;11.73;;;;;;;0.09;84.76;101317.06;5059442;28;20223;-77
2021/01/10 00:54:02;;;;;;;14.00;12.60;;;;;;;0.07;84.77;101318.69;5073971;28;20261;-77
2021/01/10 00:56:28;;;;;;;14.10;12.80;;;;;;;0.01;85.24;101314.22;5058727;28;20625;-77
2021/01/10 00:58:55;;;;;;;14.13;12.80;;;;;;;0.04;85.25;101311.78;5061913;28;20208;-77
2021/01/10 01:01:21;;;;;;;15.27;12.37;;;;;;;0.10;85.37;101308.53;5062434;28;20204;-77
2021/01/10 01:03:47;;;;;;;13.70;12.33;;;;;;;0.05;85.19;101322.91;5075163;28;20624;-77
2021/01/10 01:06:13;;;;;;;12.50;11.40;;;;;;;0.06;85.29;101316.94;5060387;28;20197;-77
2021/01/10 01:08:41;;;;;;;12.53;11.33;;;;;;;0.10;85.56;101318.78;5075753;28;20212;-77
2021/01/10 01:11:07;;;;;;;12.70;11.50;;;;;;;0.09;85.36;101320.50;5056741;28;20232;-78
2021/01/10 01:13:33;;;;;;;14.17;12.07;;;;;;;0.09;85.37;101317.94;5058158;28;20210;-78
2021/01/10 01:16:00;;;;;;;15.70;12.30;;;;;;;0.13;85.45;101317.22;5064184;28;20235;-77
2021/01/10 01:18:26;;;;;;;13.77;12.43;;;;;;;0.13;86.06;101324.94;5076233;28;20273;-78
2021/01/10 01:20:52;;;;;;;13.53;12.23;;;;;;;0.15;85.86;101322.44;5063350;28;20685;-78
2021/01/10 01:23:18;;;;;;;14.33;12.53;;;;;;;0.16;85.39;101322.50;5073088;28;20309;-76
2021/01/10 01:25:44;;;;;;;13.23;11.93;;;;;;;0.24;85.55;101329.59;5059908;28;20217;-78
2021/01/10 01:28:10;;;;;;;14.67;13.20;;;;;;;0.27;85.38;101338.28;5059509;28;20301;-78
2021/01/10 01:30:36;;;;;;;13.43;12.13;;;;;;;0.29;85.53;101338.34;5058069;28;20694;-76
2021/01/10 01:33:03;;;;;;;13.50;12.20;;;;;;;0.30;85.67;101340.97;5070567;28;20235;-77
2021/01/10 01:35:28;;;;;;;12.80;11.70;;;;;;;0.29;85.50;101339.22;5063136;28;20281;-77
2021/01/10 01:37:54;;;;;;;12.63;11.53;;;;;;;0.28;85.08;101337.47;5073090;28;20708;-76
2021/01/10 01:40:20;;;;;;;13.40;12.20;;;;;;;0.32;84.88;101335.91;5063128;28;20217;-78
2021/01/10 01:42:46;;;;;;;12.57;11.40;;;;;;;0.33;84.56;101335.06;5068914;28;20586;-78
2021/01/10 01:45:12;;;;;;;14.13;12.60;;;;;;;0.38;84.86;101341.28;5056146;28;20212;-78
2021/01/10 01:47:39;;;;;;;14.00;12.47;;;;;;;0.29;85.11;101335.78;5059872;28;20262;-76
2021/01/10 01:50:07;;;;;;;13.40;12.20;;;;;;;0.32;84.48;101339.34;5064630;28;20235;-77
2021/01/10 01:52:34;;;;;;;14.17;12.83;;;;;;;0.34;85.04;101339.41;5056489;28;20212;-78
2021/01/10 01:55:00;;;;;;;13.33;12.03;;;;;;;0.33;84.55;101332.50;5049646;28;20207;-78
2021/01/10 01:57:26;;;;;;;13.93;12.53;;;;;;;0.31;85.38;101336.72;5061014;28;20211;-78
2021/01/10 01:59:52;;;;;;;14.77;13.33;;;;;;;0.28;84.84;101347.75;5057692;28;20279;-76
2021/01/10 02:02:18;;;;;;;12.57;11.47;;;;;;;0.31;85.45;101345.28;5064979;28;20259;-77
2021/01/10 02:04:48;;;;;;;13.30;11.90;;;;;;;0.29;84.71;101351.19;5059500;28;20236;-78
2021/01/10 02:07:23;;;;;;;12.83;11.60;;;;;;;0.25;85.57;101345.06;5053301;28;20201;-76
2021/01/10 02:09:54;;;;;;;14.17;12.87;;;;;;;0.20;85.04;101341.47;5040867;28;20703;-76
2021/01/10 02:12:22;;;;;;;14.20;12.70;;;;;;;0.21;85.17;101345.75;5040911;28;20200;-78
2021/01/10 02:14:54;;;;;;;14.67;13.17;;;;;;;0.19;85.75;101342.25;5044113;28;20204;-76
2021/01/10 02:17:20;;;;;;;14.47;13.07;;;;;;;0.18;85.61;101341.41;5055800;28;20204;-78
2021/01/10 02:19:55;;;;;;;16.07;14.40;;;;;;;0.09;85.26;101358.13;5058074;28;20244;-76
2021/01/10 02:22:25;;;;;;;15.37;13.90;;;;;;;0.14;85.82;101359.16;5047334;28;20270;-76
2021/01/10 02:24:52;;;;;;;16.40;14.97;;;;;;;0.16;86.05;101363.56;5050661;28;20228;-78
2021/01/10 02:27:20;;;;;;;16.37;14.67;;;;;;;0.22;85.79;101352.66;5055252;28;20200;-78
2021/01/10 02:29:46;;;;;;;16.33;14.73;;;;;;;0.25;85.37;101360.47;5059530;28;20228;-76
2021/01/10 02:32:13;;;;;;;14.87;13.47;;;;;;;0.26;85.77;101354.53;5038929;28;20225;-76
2021/01/10 02:34:40;;;;;;;15.27;13.83;;;;;;;0.36;85.56;101356.63;5058384;28;20213;-78
2021/01/10 02:37:12;;;;;;;15.43;13.93;;;;;;;0.41;86.04;101350.78;5052447;28;20198;-76
2021/01/10 02:39:50;;;;;;;16.60;14.73;;;;;;;0.43;85.49;101351.69;5056452;28;20287;-78
2021/01/10 02:42:25;;;;;;;16.03;14.53;;;;;;;0.41;85.35;101348.19;5048282;28;20727;-78
2021/01/10 02:44:57;;;;;;;15.87;14.23;;;;;;;0.37;85.91;101345.50;5052929;28;20197;-76
2021/01/10 02:47:23;;;;;;;15.83;14.13;;;;;;;0.42;85.70;101342.22;5041465;28;20589;-76
2021/01/10 02:49:49;;;;;;;15.93;14.07;;;;;;;0.44;85.56;101338.94;5053999;28;20271;-76
2021/01/10 02:52:15;;;;;;;16.93;15.13;;;;;;;0.44;85.88;101332.88;5046385;28;20685;-77
2021/01/10 02:54:41;;;;;;;16.67;14.97;;;;;;;0.46;85.88;101323.56;5050417;28;20248;-76
2021/01/10 02:57:15;;;;;;;15.97;14.33;;;;;;;0.43;86.44;101326.03;5046126;28;20197;-78
2021/01/10 02:59:46;;;;;;;17.87;13.90;;;;;;;0.49;86.29;101324.53;5058725;28;20284;-78
2021/01/10 03:02:13;;;;;;;15.13;13.73;;;;;;;0.54;86.04;101320.47;5042481;28;20936;-76
2021/01/10 03:04:39;;;;;;;15.10;13.60;;;;;;;0.55;85.92;101313.63;5057689;28;20211;-76
2021/01/10 03:07:06;;;;;;;15.93;14.23;;;;;;;0.50;85.85;101308.31;5034139;28;20562;-76
2021/01/10 03:09:32;;;;;;;15.83;14.23;;;;;;;0.48;86.14;101319.38;5056849;28;20224;-76
2021/01/10 03:12:13;;;;;;;15.57;13.97;;;;;;;0.47;86.05;101313.34;5054258;28;20563;-76
2021/01/10 03:14:41;;;;;;;15.37;13.87;;;;;;;0.47;86.71;101318.47;5057806;28;20622;-76
2021/01/10 03:17:14;;;;;;;17.83;13.67;;;;;;;0.52;86.03;101321.22;5057219;28;20670;-78
2021/01/10 03:19:39;;;;;;;15.37;13.87;;;;;;;0.58;85.70;101312.03;5068711;28;20231;-78
2021/01/10 03:22:05;;;;;;;15.70;13.93;;;;;;;0.68;86.33;101320.09;5064683;28;20703;-76
2021/01/10 03:24:31;;;;;;;16.43;14.70;;;;;;;0.72;86.01;101321.94;5070969;28;20227;-78
2021/01/10 03:26:57;;;;;;;15.33;13.67;;;;;;;0.71;85.50;101327.88;5068331;28;20254;-78
2021/01/10 03:29:23;;;;;;;17.17;13.80;;;;;;;0.75;85.19;101325.50;5055696;28;20267;-78
2021/01/10 03:31:49;;;;;;;14.90;13.37;;;;;;;0.76;85.39;101321.22;5069990;28;20269;-76
2021/01/10 03:34:15;;;;;;;16.07;13.73;;;;;;;0.77;84.67;101331.56;5062934;28;20207;-78
2021/01/10 03:36:41;;;;;;;15.97;14.47;;;;;;;0.71;85.02;101321.03;5060240;28;20299;-78
2021/01/10 03:39:07;;;;;;;15.63;14.07;;;;;;;0.66;85.37;101316.59;5053957;28;20291;-76
2021/01/10 03:41:33;;;;;;;14.63;13.17;;;;;;;0.69;85.90;101322.69;5065303;28;20210;-78
2021/01/10 03:44:00;;;;;;;14.87;13.30;;;;;;;0.71;85.40;101317.59;5065473;28;20742;-76
2021/01/10 03:46:26;;;;;;;15.03;13.43;;;;;;;0.74;85.17;101315.16;5055713;28;20215;-78
2021/01/10 03:48:52;;;;;;;16.77;13.40;;;;;;;0.78;85.91;101310.16;5067637;28;20208;-78
2021/01/10 03:51:18;;;;;;;14.43;12.93;;;;;;;0.81;85.39;101311.09;5053124;28;20232;-76
2021/01/10 03:53:44;;;;;;;15.53;13.53;;;;;;;0.80;85.82;101305.09;5064740;28;20236;-78
2021/01/10 03:56:10;;;;;;;14.97;13.37;;;;;;;0.82;85.94;101302.56;5061458;28;20214;-78
2021/01/10 03:58:36;;;;;;;15.03;13.43;;;;;;;0.75;85.07;101297.22;5069431;28;20196;-76
2021/01/10 04:01:02;;;;;;;15.50;14.00;;;;;;;0.79;85.73;101295.63;5063741;28;20317;-78
2021/01/10 04:03:28;;;;;;;16.53;14.90;;;;;;;0.73;85.70;101297.97;5055589;28;20212;-78
2021/01/10 04:05:54;;;;;;;15.43;13.83;;;;;;;0.68;85.79;101291.81;5058924;28;20671;-78
2021/01/10 04:08:20;;;;;;;15.60;13.67;;;;;;;0.60;85.71;101286.41;5059913;28;20208;-76
2021/01/10 04:10:46;;;;;;;15.47;13.87;;;;;;;0.58;86.45;101288.06;5064617;28;20232;-78
2021/01/10 04:13:12;;;;;;;15.83;14.20;;;;;;;0.64;85.77;101293.41;5060091;28;20563;-78
2021/01/10 04:15:38;;;;;;;16.90;15.10;;;;;;;0.66;86.06;101291.75;5066395;28;20239;-78
2021/01/10 04:18:04;;;;;;;16.47;14.27;;;;;;;0.68;86.57;101287.53;5062219;28;20205;-78
2021/01/10 04:20:30;;;;;;;17.93;14.97;;;;;;;0.66;86.06;101286.63;5055341;28;20218;-78
2021/01/10 04:22:56;;;;;;;16.40;14.80;;;;;;;0.67;86.67;101283.22;5055769;28;20254;-78
2021/01/10 04:25:22;;;;;;;20.73;15.43;;;;;;;0.68;86.52;101286.69;5054504;28;20254;-78
2021/01/10 04:27:48;;;;;;;18.63;15.07;;;;;;;0.73;86.24;101283.47;5061408;28;20288;-78
2021/01/10 04:30:14;;;;;;;16.37;13.70;;;;;;;0.77;85.96;101285.31;5060824;28;20263;-78
2021/01/10 04:32:40;;;;;;;17.60;14.30;;;;;;;0.82;85.57;101287.16;5049420;28;20196;-78
2021/01/10 04:35:07;;;;;;;20.27;15.17;;;;;;;0.81;86.30;101280.25;5052968;28;20290;-78
2021/01/10 04:37:33;;;;;;;16.83;15.03;;;;;;;0.79;86.42;101283.66;5057302;28;20201;-78
2021/01/10 04:39:59;;;;;;;19.43;15.60;;;;;;;0.82;85.96;101280.31;5060122;28;20313;-78
2021/01/10 04:42:26;;;;;;;16.87;15.10;;;;;;;0.85;86.26;101282.97;5066197;28;20214;-78
2021/01/10 04:44:53;;;;;;;19.53;15.53;;;;;;;0.83;85.44;101278.63;5051607;28;20587;-78
2021/01/10 04:47:19;;;;;;;19.00;16.03;;;;;;;0.85;85.61;101279.53;5059094;28;20203;-78
2021/01/10 04:49:45;;;;;;;16.63;14.93;;;;;;;0.85;85.58;101282.97;5067275;28;20225;-78
2021/01/10 04:52:12;;;;;;;16.70;13.93;;;;;;;0.84;86.07;101282.94;5066263;28;20229;-78
2021/01/10 04:54:41;;;;;;;19.10;15.70;;;;;;;0.80;86.15;101284.53;5062103;28;21097;-78
2021/01/10 04:57:11;;;;;;;21.97;15.50;;;;;;;0.80;86.10;101284.53;5058638;28;20197;-78
2021/01/10 04:59:39;;;;;;;18.53;15.37;;;;;;;0.84;86.52;101280.38;5062408;28;20228;-78
2021/01/10 05:02:07;;;;;;;22.37;16.50;;;;;;;0.79;86.20;101280.19;5061805;28;20212;-78
2021/01/10 05:04:34;;;;;;;19.10;16.17;;;;;;;0.86;85.97;101286.44;5058544;28;20249;-78
2021/01/10 05:07:00;;;;;;;21.00;16.43;;;;;;;0.84;85.81;101278.66;5061568;28;20208;-78
2021/01/10 05:09:27;;;;;;;20.37;16.17;;;;;;;0.89;85.93;101277.16;5054716;28;20220;-78
2021/01/10 05:11:53;;;;;;;23.03;17.03;;;;;;;0.86;85.87;101278.72;5056250;28;20216;-78
2021/01/10 05:14:19;;;;;;;19.10;16.40;;;;;;;0.89;85.91;101278.81;5054716;28;20205;-78
2021/01/10 05:16:45;;;;;;;18.00;16.10;;;;;;;0.89;86.39;101281.38;5055859;28;20744;-78
2021/01/10 05:19:11;;;;;;;21.50;16.03;;;;;;;0.92;85.76;101291.78;5069830;28;20226;-78
2021/01/10 05:21:40;;;;;;;22.13;16.40;;;;;;;0.96;85.67;101281.66;5061293;28;20582;-78
2021/01/10 05:24:07;;;;;;;21.53;16.10;;;;;;;0.95;86.27;101285.06;5061462;28;20204;-78
2021/01/10 05:26:34;;;;;;;22.10;16.17;;;;;;;0.89;85.52;101287.44;5052411;28;20210;-78
2021/01/10 05:29:05;;;;;;;24.63;16.63;;;;;;;0.87;85.81;101283.91;5061784;28;20679;-78
2021/01/10 05:31:34;;;;;;;19.87;16.20;;;;;;;0.94;86.31;101283.28;5052977;28;20236;-78
2021/01/10 05:34:00;;;;;;;21.27;16.77;;;;;;;0.88;85.71;101285.66;5069817;28;20682;-78
2021/01/10 05:36:29;;;;;;;24.20;16.40;;;;;;;0.89;85.71;101284.84;5054605;28;20206;-78
2021/01/10 05:38:56;;;;;;;20.27;15.90;;;;;;;0.92;86.56;101287.50;5056977;28;20200;-78
2021/01/10 05:41:23;;;;;;;20.63;15.23;;;;;;;0.93;85.94;101291.84;5057981;28;20663;-78
2021/01/10 05:44:00;;;;;;;19.03;15.97;;;;;;;0.90;86.66;101296.88;5050342;28;20202;-78
2021/01/10 05:46:29;;;;;;;26.70;17.77;;;;;;;0.89;86.61;101294.25;5051775;28;20322;-78
2021/01/10 05:48:56;;;;;;;21.23;17.47;;;;;;;0.92;86.38;101294.34;5059145;28;20281;-78
2021/01/10 05:51:27;;;;;;;28.60;17.80;;;;;;;0.87;85.86;101301.88;5052007;28;20221;-78
2021/01/10 05:53:52;;;;;;;27.90;17.57;;;;;;;0.86;86.61;101297.59;5048967;28;20205;-78
2021/01/10 05:56:19;;;;;;;31.97;18.50;;;;;;;0.92;85.73;101290.09;5056295;28;20240;-78
2021/01/10 05:58:53;;;;;;;28.23;18.10;;;;;;;0.93;86.58;101299.56;5054812;28;20294;-78
2021/01/10 06:01:21;;;;;;;22.73;17.43;;;;;;;0.91;85.90;101298.63;5040092;28;20234;-78
2021/01/10 06:03:47;;;;;;;22.70;17.07;;;;;;;0.93;86.39;101302.13;5053750;28;20200;-78
2021/01/10 06:06:14;;;;;;;25.67;17.93;;;;;;;0.92;85.88;101305.50;5045135;28;20259;-77
2021/01/10 06:08:41;;;;;;;24.10;18.00;;;;;;;0.97;85.99;101301.41;5045820;28;20271;-77
2021/01/10 06:11:21;;;;;;;26.17;17.83;;;;;;;0.99;85.66;101307.47;5052720;28;20276;-77
2021/01/10 06:13:49;;;;;;;24.43;17.17;;;;;;;0.93;86.23;101311.50;5056094;28;20204;-77
2021/01/10 06:16:15;;;;;;;23.60;16.63;;;;;;;0.97;86.05;101308.22;5051425;28;20201;-77
2021/01/10 06:18:45;;;;;;;22.43;16.73;;;;;;;0.97;86.41;101309.13;5053523;28;20253;-77
2021/01/10 06:21:18;;;;;;;23.70;17.37;;;;;;;1.04;86.27;101309.31;5045597;28;20253;-77
2021/01/10 06:23:47;;;;;;;23.70;17.47;;;;;;;1.04;85.98;101311.91;5050195;28;20219;-78
2021/01/10 06:26:16;;;;;;;19.77;15.90;;;;;;;0.99;85.83;101309.16;5053228;28;20205;-77
2021/01/10 06:28:46;;;;;;;24.77;17.07;;;;;;;1.06;86.39;101312.81;5047644;28;20218;-78
2021/01/10 06:31:13;;;;;;;26.70;18.10;;;;;;;1.03;86.42;101313.59;5049177;28;20233;-77
2021/01/10 06:33:40;;;;;;;26.47;17.97;;;;;;;1.04;86.32;101311.91;5059877;28;20716;-77
2021/01/10 06:36:08;;;;;;;21.73;16.20;;;;;;;0.97;86.54;101309.13;5042317;28;20206;-78
2021/01/10 06:38:36;;;;;;;24.47;17.10;;;;;;;0.97;86.27;101305.66;5052948;28;20201;-77
2021/01/10 06:41:51;;;;;;;21.47;16.73;;;;;;;0.99;86.21;101315.19;5059746;28;20624;-77
2021/01/10 06:44:19;;;;;;;21.70;15.73;;;;;;;1.04;85.87;101306.75;5043932;28;20197;-77
2021/01/10 06:46:49;;;;;;;20.13;16.80;;;;;;;1.05;85.78;101308.47;5059602;28;20624;-77
2021/01/10 06:49:15;;;;;;;21.87;16.53;;;;;;;1.06;85.62;101310.25;5071819;28;20221;-77
2021/01/10 06:51:44;;;;;;;28.30;17.57;;;;;;;0.96;85.83;101311.63;5056756;28;20906;-78
2021/01/10 06:54:11;;;;;;;27.83;17.30;;;;;;;0.99;86.01;101302.34;5061257;28;20201;-78
2021/01/10 06:56:38;;;;;;;21.03;16.10;;;;;;;0.98;86.15;101304.84;5054352;28;20208;-77
2021/01/10 06:59:07;;;;;;;25.20;17.30;;;;;;;1.03;86.18;101307.56;5054388;28;20201;-78
2021/01/10 07:01:58;;;;;;;25.37;17.50;;;;;;;1.05;86.11;101311.06;5064386;28;20200;-77
2021/01/10 07:04:25;;;;;;;25.53;17.13;;;;;;;1.08;85.71;101306.91;5067901;28;20198;-77
2021/01/10 07:06:52;;;;;;;20.70;16.50;;;;;;;1.05;85.88;101313.63;5060423;28;20227;-76
2021/01/10 07:09:21;;;;;;;22.53;15.90;;;;;;;1.03;85.46;101312.69;5059373;28;20275;-78
2021/01/10 07:11:49;;;;;;;26.30;17.07;;;;;;;1.02;86.25;101309.28;5050884;28;20232;-78
2021/01/10 07:14:25;;;;;;;24.47;16.70;;;;;;;1.07;85.72;101315.44;5060490;28;20689;-77
2021/01/10 07:17:10;;;;;;;23.97;16.67;;;;;;;1.04;86.23;101319.59;5050847;28;20197;-77
2021/01/10 07:19:41;;;;;;;25.50;15.97;;;;;;;1.05;85.62;101305.91;5059525;28;20730;-77
2021/01/10 07:22:25;;;;;;;22.70;17.33;;;;;;;1.08;85.75;101311.19;5058138;28;20201;-77
2021/01/10 07:24:52;;;;;;;25.47;18.07;;;;;;;1.11;85.48;101313.84;5060509;28;20252;-77
2021/01/10 07:27:29;;;;;;;26.67;17.47;;;;;;;1.10;85.09;101310.41;5059968;28;20689;-78
2021/01/10 07:29:55;;;;;;;26.20;18.07;;;;;;;1.12;84.92;101315.59;5053211;28;20226;-77
2021/01/10 07:32:33;;;;;;;26.40;18.00;;;;;;;1.09;85.20;101318.03;5056856;28;20221;-77
2021/01/10 07:35:01;;;;;;;26.20;18.17;;;;;;;1.09;85.22;101313.81;5059927;28;20206;-77
2021/01/10 07:37:29;;;;;;;23.47;17.63;;;;;;;1.11;84.79;101319.88;5055973;28;20210;-78
2021/01/10 07:39:57;;;;;;;28.57;19.27;;;;;;;1.11;85.13;101318.97;5056426;28;20281;-77
2021/01/10 07:42:25;;;;;;;25.80;17.27;;;;;;;1.11;85.24;101319.88;5057201;28;20213;-77
2021/01/10 07:44:53;;;;;;;27.67;18.57;;;;;;;1.13;84.68;101317.31;5051464;28;20201;-76
2021/01/10 07:47:44;;;;;;;22.63;16.93;;;;;;;1.09;84.32;101320.63;5055842;28;20656;-78
2021/01/10 07:50:20;;;;;;;24.87;17.10;;;;;;;1.14;84.20;101316.53;5060141;28;20292;-78
2021/01/10 07:52:54;;;;;;;20.57;16.97;;;;;;;1.08;84.68;101324.91;5056514;28;20313;-78
2021/01/10 07:55:32;;;;;;;23.73;16.43;;;;;;;1.13;85.20;101320.78;5062830;28;20387;-78
2021/01/10 07:58:18;;;;;;;26.27;16.73;;;;;;;1.21;84.70;101317.59;5058129;28;20204;-77
2021/01/10 08:00:51;;;;;;;21.20;14.90;;;;;;;1.18;84.71;101319.22;5050205;28;20229;-78
2021/01/10 08:03:23;;;;;;;20.63;15.53;;;;;;;1.17;84.87;101317.50;5060073;28;20575;-78
2021/01/10 08:06:00;;;;;;;23.00;16.43;;;;;;;1.17;85.47;101314.06;5059427;28;20306;-77
2021/01/10 08:08:41;;;;;;;21.23;16.77;;;;;;;1.15;85.58;101311.44;5060598;28;20200;-78
2021/01/10 08:11:07;;;;;;;20.83;16.87;;;;;;;1.15;85.74;101314.00;5059026;28;20245;-77
2021/01/10 08:13:35;;;;;;;16.63;14.83;;;;;;;1.12;85.68;101321.59;5059310;28;20200;-78
2021/01/10 08:16:02;;;;;;;22.97;16.13;;;;;;;1.17;84.93;101330.34;5055538;28;20205;-76
2021/01/10 08:18:36;;;;;;;18.50;15.17;;;;;;;1.15;85.03;101325.97;5060658;28;20201;-77
2021/01/10 08:21:04;;;;;;;18.10;15.30;;;;;;;1.19;85.12;101331.28;5054880;28;20217;-77
2021/01/10 08:23:32;;;;;;;25.80;16.83;;;;;;;1.22;85.38;101337.34;5061731;28;20200;-78
2021/01/10 08:26:07;;;;;;;19.37;16.03;;;;;;;1.19;85.61;101341.56;5059710;28;20279;-77
2021/01/10 08:28:35;;;;;;;21.57;15.20;;;;;;;1.19;85.28;101345.84;5058642;28;20306;-77
2021/01/10 08:31:03;;;;;;;22.83;16.47;;;;;;;1.23;84.92;101346.81;5057360;28;20224;-77
2021/01/10 08:33:29;;;;;;;20.23;16.30;;;;;;;1.20;85.19;101342.44;5051163;28;20272;-78
2021/01/10 08:36:08;;;;;;;20.33;16.03;;;;;;;1.21;85.72;101349.34;5064937;28;20201;-80
2021/01/10 08:38:34;;;;;;;26.03;17.13;;;;;;;1.19;85.17;101346.72;5060427;28;20200;-79
2021/01/10 08:41:00;;;;;;;23.00;17.63;;;;;;;1.23;85.79;101341.66;5058438;28;20225;-79
2021/01/10 08:43:26;;;;;;;21.57;16.43;;;;;;;1.29;85.55;101339.28;5055925;28;20207;-78
2021/01/10 08:45:52;;;;;;;22.00;19.07;;;;;;;1.37;84.64;101345.59;5066861;28;20604;-79
2021/01/10 08:48:18;;;;;;;29.43;22.70;;;;;;;1.36;85.26;101346.41;5061437;28;20212;-79
2021/01/10 08:50:44;;;;;;;28.97;20.83;;;;;;;1.42;85.00;101346.59;5056728;28;20229;-78
2021/01/10 08:53:11;;;;;;;48.13;29.27;;;;;;;1.53;84.37;101341.81;5057128;28;20682;-78
2021/01/10 08:55:39;;;;;;;28.83;19.93;;;;;;;1.41;83.65;101350.00;5051858;28;20629;-79
2021/01/10 08:58:07;;;;;;;24.90;18.57;;;;;;;1.45;84.26;101349.28;5057222;28;20198;-78
2021/01/10 09:00:32;;;;;;;31.63;22.70;;;;;;;1.51;84.35;101346.03;5054394;28;20253;-78
2021/01/10 09:03:15;;;;;;;25.67;19.03;;;;;;;1.54;84.38;101344.41;5054532;28;20290;-79
2021/01/10 09:05:42;;;;;;;25.77;18.30;;;;;;;1.56;84.34;101350.47;5053218;28;20205;-79
2021/01/10 09:08:21;;;;;;;22.67;18.67;;;;;;;1.63;84.12;101348.13;5053693;28;20580;-79
2021/01/10 09:10:56;;;;;;;24.70;18.20;;;;;;;1.63;83.83;101354.16;5053744;28;20221;-79
2021/01/10 09:13:22;;;;;;;26.13;17.73;;;;;;;1.65;83.79;101357.66;5058206;28;20212;-79
2021/01/10 09:15:53;;;;;;;25.23;17.17;;;;;;;1.74;84.06;101351.91;5054156;28;20205;-78
2021/01/10 09:18:21;;;;;;;22.77;17.43;;;;;;;1.65;83.66;101351.63;5059149;28;20201;-78
2021/01/10 09:20:51;;;;;;;24.70;17.90;;;;;;;1.72;83.41;101356.13;5060686;28;20224;-78
2021/01/10 09:23:19;;;;;;;24.10;17.40;;;;;;;1.78;83.77;101356.31;5061540;28;20212;-77
2021/01/10 09:25:45;;;;;;;22.10;16.23;;;;;;;1.71;82.49;101352.69;5053280;28;20674;-77
2021/01/10 09:28:13;;;;;;;24.67;15.80;;;;;;;1.81;82.36;101351.28;5067002;28;20219;-80
2021/01/10 09:30:41;;;;;;;19.10;16.47;;;;;;;1.88;82.46;101354.91;5063929;28;20227;-79
2021/01/10 09:33:08;;;;;;;23.07;16.30;;;;;;;1.99;83.82;101351.84;5066406;28;20415;-80
2021/01/10 09:35:40;;;;;;;20.27;16.87;;;;;;;2.31;88.01;101349.38;5063565;28;20264;-79
2021/01/10 09:38:10;;;;;;;22.10;17.47;;;;;;;2.33;86.26;101349.41;5058781;28;20201;-78
2021/01/10 09:40:37;;;;;;;22.13;16.97;;;;;;;2.26;83.63;101358.69;5066133;28;20256;-76
2021/01/10 09:43:03;;;;;;;22.70;17.73;;;;;;;2.44;84.66;101350.63;5058763;28;20197;-78
2021/01/10 09:45:38;;;;;;;23.57;17.23;;;;;;;2.47;82.99;101350.69;5064843;28;20200;-78
2021/01/10 09:48:05;;;;;;;21.87;15.87;;;;;;;2.39;81.52;101341.88;5063327;28;20283;-78
2021/01/10 09:50:32;;;;;;;23.70;16.53;;;;;;;2.52;84.52;101345.69;5059220;28;20225;-79
2021/01/10 09:52:58;;;;;;;18.53;16.03;;;;;;;2.49;81.88;101346.44;5064231;28;20252;-79
2021/01/10 09:55:25;;;;;;;20.33;15.83;;;;;;;2.50;82.17;101347.34;5063728;28;20225;-78
2021/01/10 09:57:53;;;;;;;20.67;16.73;;;;;;;2.37;80.92;101346.09;5062217;28;20201;-79
2021/01/10 10:00:19;;;;;;;18.03;15.73;;;;;;;2.28;80.86;101349.28;5048813;28;20222;-76
2021/01/10 10:02:47;;;;;;;20.07;16.90;;;;;;;2.18;80.79;101349.81;5053439;28;20300;-77
2021/01/10 10:05:14;;;;;;;19.83;15.90;;;;;;;2.05;81.07;101356.31;5053624;28;20239;-77
2021/01/10 10:07:42;;;;;;;19.03;16.00;;;;;;;2.01;81.91;101361.34;5065086;28;20541;-77
2021/01/10 10:10:19;;;;;;;19.63;17.00;;;;;;;1.74;81.26;101346.75;5061849;28;20218;-77
2021/01/10 10:12:55;;;;;;;21.50;17.83;;;;;;;1.68;82.64;101347.44;5063688;28;20222;-78
2021/01/10 10:15:21;;;;;;;21.17;16.47;;;;;;;1.57;82.45;101347.09;5064106;28;20206;-77
2021/01/10 10:17:47;;;;;;;19.07;16.20;;;;;;;1.58;81.52;101343.69;5054687;28;20679;-77
2021/01/10 10:20:13;;;;;;;21.10;16.23;;;;;;;1.56;82.36;101341.91;5061404;28;20252;-77
2021/01/10 10:22:40;;;;;;;17.37;14.40;;;;;;;1.55;81.74;101333.31;5053027;28;20197;-77
2021/01/10 10:25:08;;;;;;;20.27;15.67;;;;;;;1.58;81.81;101332.53;5051822;28;20207;-77
2021/01/10 10:27:34;;;;;;;18.53;15.57;;;;;;;1.65;82.28;101342.22;5064480;28;20205;-76
2021/01/10 10:30:02;;;;;;;22.63;16.60;;;;;;;1.68;81.68;101332.00;5058165;28;20229;-77
2021/01/10 10:32:29;;;;;;;19.83;16.03;;;;;;;1.70;82.68;101335.50;5061757;28;20232;-76
2021/01/10 10:34:55;;;;;;;21.77;16.33;;;;;;;1.59;81.44;101330.00;5058850;28;20551;-77
2021/01/10 10:37:23;;;;;;;18.03;16.07;;;;;;;1.49;81.52;101337.41;5060223;28;20198;-77
2021/01/10 10:39:49;;;;;;;23.53;16.40;;;;;;;1.37;81.81;101322.44;5058914;28;20228;-76
2021/01/10 10:42:17;;;;;;;33.17;19.73;;;;;;;1.58;84.87;101322.25;5056009;28;20244;-77
2021/01/10 10:44:43;;;;;;;24.10;19.83;;;;;;;1.72;84.54;101313.25;5058528;28;20208;-77
2021/01/10 10:47:14;;;;;;;21.30;16.63;;;;;;;1.88;84.19;101306.00;5054482;28;20213;-76
2021/01/10 10:49:41;;;;;;;18.80;16.63;;;;;;;1.93;82.80;101302.75;5056326;28;20266;-77
2021/01/10 10:52:08;;;;;;;20.63;17.27;;;;;;;1.92;81.82;101294.97;5051980;28;20217;-76
2021/01/10 10:54:34;;;;;;;22.63;17.83;;;;;;;2.01;82.37;101297.84;5051774;28;20232;-76
2021/01/10 10:57:00;;;;;;;20.43;16.00;;;;;;;2.02;81.20;101290.97;5049754;28;20199;-76
2021/01/10 10:59:26;;;;;;;19.07;16.27;;;;;;;2.05;81.84;101288.50;5057492;28;20720;-76
2021/01/10 11:01:52;;;;;;;22.90;15.97;;;;;;;2.11;81.10;101296.41;5056935;28;20562;-76
2021/01/10 11:04:18;;;;;;;19.30;14.23;;;;;;;2.16;80.88;101287.09;5052082;28;20739;-75
2021/01/10 11:06:44;;;;;;;16.03;14.27;;;;;;;2.12;80.30;101293.88;5051897;28;20205;-76
2021/01/10 11:09:11;;;;;;;28.07;25.23;;;;;;;2.11;80.59;101292.13;5057761;28;20193;-77
2021/01/10 11:11:39;;;;;;;20.30;15.50;;;;;;;2.03;79.33;101290.16;5056544;28;20220;-77
2021/01/10 11:14:06;;;;;;;15.97;14.20;;;;;;;2.11;79.68;101281.81;5059858;28;20693;-76
2021/01/10 11:16:33;;;;;;;15.97;14.33;;;;;;;2.09;78.99;101286.06;5056710;28;20199;-76
2021/01/10 11:19:00;;;;;;;17.97;14.73;;;;;;;2.29;81.18;101278.91;5059046;28;20726;-76
2021/01/10 11:21:28;;;;;;;18.83;16.03;;;;;;;2.42;81.32;101285.28;5054824;28;20253;-76